Time;durP1;ratioP1;P1;durP2;ratioP2;P2;SDS_P1;SDS_P2;PMS_P1;PMS_P2;Temp;Humidity;BMP_temperature;BMP_pressure;BME280_temperature;BME280_humidity;BME280_pressure;Samples;Min_cycle;Max_cycle;Signal;HPM_P1;HPM_P2
2023/12/03 00:00:02;;;;;;;16.08;10.73;;;;;;;;;;5110123;28;20099;-49
2023/12/03 00:02:28;;;;;;;12.25;6.30;;;;;;;;;;5110392;28;20034;-46
2023/12/03 00:04:55;;;;;;;15.95;10.90;;;;;;;;;;5110304;28;20149;-54
2023/12/03 00:07:21;;;;;;;13.77;6.45;;;;;;;;;;5110300;28;20051;-48
2023/12/03 00:09:48;;;;;;;21.63;12.70;;;;;;;;;;5110230;28;20055;-47
2023/12/03 00:12:14;;;;;;;19.60;10.40;;;;;;;;;;5110156;28;20362;-45
2023/12/03 00:14:40;;;;;;;21.88;7.75;;;;;;;;;;5110528;28;20028;-46
2023/12/03 00:17:06;;;;;;;10.75;5.90;;;;;;;;;;5109937;28;20695;-45
2023/12/03 00:19:32;;;;;;;12.20;8.00;;;;;;;;;;5110392;28;20038;-50
2023/12/03 00:21:58;;;;;;;10.18;6.93;;;;;;;;;;5110048;28;20031;-47
2023/12/03 00:24:24;;;;;;;21.48;11.07;;;;;;;;;;5109638;28;20028;-43
2023/12/03 00:26:50;;;;;;;23.20;10.63;;;;;;;;;;5110054;28;20019;-48
2023/12/03 00:29:16;;;;;;;14.93;9.90;;;;;;;;;;5110153;28;20038;-48
2023/12/03 00:31:41;;;;;;;14.52;8.50;;;;;;;;;;5109773;28;20020;-49
2023/12/03 00:34:08;;;;;;;15.95;7.93;;;;;;;;;;5110174;28;20468;-46
2023/12/03 00:36:34;;;;;;;18.45;9.75;;;;;;;;;;5109872;28;20032;-48
2023/12/03 00:39:00;;;;;;;33.20;15.80;;;;;;;;;;5110061;28;20096;-48
2023/12/03 00:41:26;;;;;;;15.52;8.77;;;;;;;;;;4400671;28;10000766;-45
2023/12/03 00:43:52;;;;;;;16.15;8.05;;;;;;;;;;5108308;28;20103;-51
2023/12/03 00:46:21;;;;;;;10.98;6.47;;;;;;;;;;5118581;22;20125;-58
2023/12/03 00:48:47;;;;;;;20.02;10.98;;;;;;;;;;5093688;28;20485;-58
2023/12/03 00:51:13;;;;;;;8.38;4.97;;;;;;;;;;5096359;28;20040;-58
2023/12/03 00:53:40;;;;;;;9.75;5.85;;;;;;;;;;5096298;28;20042;-57
2023/12/03 00:56:06;;;;;;;13.70;6.95;;;;;;;;;;5094394;28;20036;-57
2023/12/03 00:58:32;;;;;;;17.23;7.35;;;;;;;;;;5095975;28;20024;-59
2023/12/03 01:00:58;;;;;;;21.67;8.27;;;;;;;;;;5095818;28;20347;-60
2023/12/03 01:03:24;;;;;;;15.88;8.98;;;;;;;;;;5094517;28;20043;-59
2023/12/03 01:05:50;;;;;;;7.97;4.72;;;;;;;;;;5095698;28;20059;-59
2023/12/03 01:08:16;;;;;;;10.77;6.78;;;;;;;;;;5095379;28;20024;-59
2023/12/03 01:10:42;;;;;;;13.63;8.88;;;;;;;;;;5095345;28;20410;-60
2023/12/03 01:13:08;;;;;;;12.82;7.10;;;;;;;;;;5095262;28;20298;-60
2023/12/03 01:15:34;;;;;;;10.15;6.10;;;;;;;;;;5095595;28;20131;-60
2023/12/03 01:18:00;;;;;;;18.40;7.43;;;;;;;;;;5096022;28;20050;-60
2023/12/03 01:20:26;;;;;;;25.33;12.80;;;;;;;;;;5094873;28;20080;-57
2023/12/03 01:22:52;;;;;;;21.40;12.32;;;;;;;;;;5094961;28;20070;-58
2023/12/03 01:25:18;;;;;;;18.77;11.00;;;;;;;;;;5094026;28;20024;-58
2023/12/03 01:27:44;;;;;;;27.58;14.27;;;;;;;;;;5076162;28;20482;-61
2023/12/03 01:30:10;;;;;;;10.63;7.05;;;;;;;;;;5097427;28;20089;-61
2023/12/03 01:32:36;;;;;;;17.27;8.73;;;;;;;;;;5099422;28;20020;-60
2023/12/03 01:35:02;;;;;;;10.50;6.55;;;;;;;;;;5098715;28;20035;-58
2023/12/03 01:37:28;;;;;;;11.35;8.52;;;;;;;;;;5096952;28;20140;-58
2023/12/03 01:39:54;;;;;;;18.33;8.30;;;;;;;;;;5098559;28;20026;-58
2023/12/03 01:42:20;;;;;;;11.23;6.20;;;;;;;;;;5098754;28;20027;-61
2023/12/03 01:44:46;;;;;;;10.98;6.90;;;;;;;;;;5097854;28;20089;-58
2023/12/03 01:47:14;;;;;;;13.30;8.73;;;;;;;;;;5097155;28;20035;-60
2023/12/03 01:49:40;;;;;;;18.70;11.68;;;;;;;;;;5096988;28;20024;-61
2023/12/03 01:52:06;;;;;;;14.68;9.30;;;;;;;;;;5097948;28;20016;-60
2023/12/03 01:54:35;;;;;;;19.00;10.23;;;;;;;;;;5097545;28;20225;-60
2023/12/03 01:57:01;;;;;;;14.07;8.25;;;;;;;;;;5098101;28;20044;-60
2023/12/03 01:59:27;;;;;;;15.45;11.38;;;;;;;;;;5098241;28;20072;-58
2023/12/03 02:01:53;;;;;;;21.25;12.25;;;;;;;;;;5080737;28;20028;-60
2023/12/03 02:04:19;;;;;;;15.98;9.00;;;;;;;;;;5080677;28;20049;-60
2023/12/03 02:06:45;;;;;;;28.13;10.32;;;;;;;;;;5098936;28;20028;-60
2023/12/03 02:09:14;;;;;;;25.92;12.93;;;;;;;;;;5098490;28;20527;-61
2023/12/03 02:11:40;;;;;;;10.40;6.35;;;;;;;;;;5098283;28;20021;-62
2023/12/03 02:14:06;;;;;;;28.92;17.90;;;;;;;;;;5098087;28;20064;-60
2023/12/03 02:16:34;;;;;;;9.52;5.82;;;;;;;;;;5097804;28;20647;-60
2023/12/03 02:19:01;;;;;;;10.13;6.80;;;;;;;;;;5097239;28;20402;-61
2023/12/03 02:21:27;;;;;;;13.20;9.15;;;;;;;;;;5096310;28;20024;-60
2023/12/03 02:23:53;;;;;;;17.38;9.25;;;;;;;;;;5097573;28;20073;-61
2023/12/03 02:26:18;;;;;;;14.65;7.68;;;;;;;;;;5096778;28;20035;-60
2023/12/03 02:28:45;;;;;;;11.48;6.43;;;;;;;;;;5096767;28;20082;-59
2023/12/03 02:31:11;;;;;;;14.23;8.13;;;;;;;;;;5095734;28;20116;-60
2023/12/03 02:33:37;;;;;;;8.02;4.85;;;;;;;;;;5097380;28;20054;-60
2023/12/03 02:36:04;;;;;;;15.30;10.98;;;;;;;;;;5095464;28;20028;-63
2023/12/03 02:38:30;;;;;;;8.95;5.30;;;;;;;;;;5096487;28;20063;-59
2023/12/03 02:40:58;;;;;;;16.80;8.13;;;;;;;;;;5096847;28;20035;-60
2023/12/03 02:43:24;;;;;;;20.77;13.38;;;;;;;;;;5095669;28;20546;-58
2023/12/03 02:45:50;;;;;;;9.73;6.07;;;;;;;;;;5078115;28;20101;-57
2023/12/03 02:48:16;;;;;;;12.98;8.63;;;;;;;;;;5096105;28;20028;-60
2023/12/03 02:50:42;;;;;;;12.20;8.02;;;;;;;;;;5094926;28;20072;-60
2023/12/03 02:53:08;;;;;;;15.63;9.48;;;;;;;;;;5095211;28;20482;-62
2023/12/03 02:55:34;;;;;;;12.63;6.63;;;;;;;;;;5096578;28;20085;-61
2023/12/03 02:58:00;;;;;;;25.63;6.55;;;;;;;;;;5096466;28;20412;-59
2023/12/03 03:00:26;;;;;;;14.60;10.40;;;;;;;;;;5096868;28;20024;-59
2023/12/03 03:02:52;;;;;;;8.93;5.38;;;;;;;;;;5097155;28;20077;-59
2023/12/03 03:05:18;;;;;;;10.13;5.90;;;;;;;;;;5098448;28;20032;-61
2023/12/03 03:07:44;;;;;;;15.52;6.68;;;;;;;;;;5097417;28;20020;-57
2023/12/03 03:10:10;;;;;;;20.63;8.85;;;;;;;;;;5095049;28;20020;-64
2023/12/03 03:12:36;;;;;;;9.32;6.43;;;;;;;;;;5096527;28;20062;-60
2023/12/03 03:15:02;;;;;;;10.02;5.55;;;;;;;;;;5097293;28;20024;-59
2023/12/03 03:17:28;;;;;;;12.85;7.15;;;;;;;;;;5096345;28;20031;-60
2023/12/03 03:19:54;;;;;;;29.38;14.25;;;;;;;;;;5096522;28;20038;-60
2023/12/03 03:22:20;;;;;;;17.08;9.57;;;;;;;;;;5078502;28;20016;-59
2023/12/03 03:24:46;;;;;;;14.48;8.45;;;;;;;;;;5097177;28;20444;-61
2023/12/03 03:27:12;;;;;;;9.20;5.55;;;;;;;;;;5095993;28;20061;-60
2023/12/03 03:29:38;;;;;;;24.10;14.02;;;;;;;;;;5095636;28;20035;-59
2023/12/03 03:32:04;;;;;;;13.65;5.97;;;;;;;;;;5077554;28;20016;-58
2023/12/03 03:34:30;;;;;;;11.75;7.30;;;;;;;;;;5093673;28;20110;-60
2023/12/03 03:36:56;;;;;;;21.67;10.30;;;;;;;;;;5092385;28;20077;-59
2023/12/03 03:39:22;;;;;;;11.35;6.40;;;;;;;;;;5078564;28;20476;-61
2023/12/03 03:41:48;;;;;;;12.77;8.05;;;;;;;;;;5095922;28;20020;-60
2023/12/03 03:44:14;;;;;;;21.15;10.52;;;;;;;;;;5095931;28;20028;-60
2023/12/03 03:46:40;;;;;;;25.73;12.55;;;;;;;;;;5094776;28;20053;-58
2023/12/03 03:49:06;;;;;;;12.43;7.18;;;;;;;;;;5094925;28;20020;-61
2023/12/03 03:51:32;;;;;;;22.65;12.30;;;;;;;;;;5094557;28;20028;-58
2023/12/03 03:53:58;;;;;;;26.52;13.25;;;;;;;;;;5094951;28;20488;-57
2023/12/03 03:56:24;;;;;;;23.27;14.38;;;;;;;;;;5076762;28;20051;-58
2023/12/03 03:58:50;;;;;;;27.92;13.55;;;;;;;;;;5095638;28;20032;-59
2023/12/03 04:01:16;;;;;;;19.40;12.85;;;;;;;;;;5094720;28;20031;-60
2023/12/03 04:03:42;;;;;;;25.48;12.65;;;;;;;;;;5095004;28;20030;-59
2023/12/03 04:06:09;;;;;;;18.65;8.95;;;;;;;;;;5094706;28;20032;-60
2023/12/03 04:08:35;;;;;;;16.50;10.65;;;;;;;;;;5093373;28;20073;-60
2023/12/03 04:11:04;;;;;;;21.25;10.93;;;;;;;;;;5077010;28;20052;-59
2023/12/03 04:13:30;;;;;;;8.75;5.05;;;;;;;;;;5094536;28;20024;-59
2023/12/03 04:15:57;;;;;;;26.33;12.63;;;;;;;;;;5094648;28;20114;-60
2023/12/03 04:18:23;;;;;;;36.78;17.08;;;;;;;;;;5094180;28;20028;-60
2023/12/03 04:20:49;;;;;;;24.67;12.00;;;;;;;;;;5094220;28;20020;-59
2023/12/03 04:23:15;;;;;;;21.55;9.40;;;;;;;;;;5094015;28;20035;-59
2023/12/03 04:25:42;;;;;;;12.43;7.13;;;;;;;;;;5094282;28;20024;-60
2023/12/03 04:28:09;;;;;;;19.05;7.03;;;;;;;;;;5094505;28;20039;-58
2023/12/03 04:30:35;;;;;;;18.52;8.75;;;;;;;;;;5093200;28;20059;-58
2023/12/03 04:33:01;;;;;;;12.13;8.25;;;;;;;;;;5092810;28;20125;-57
2023/12/03 04:35:27;;;;;;;16.42;9.02;;;;;;;;;;5093890;28;20032;-60
2023/12/03 04:37:53;;;;;;;18.75;10.43;;;;;;;;;;5094251;28;20500;-57
2023/12/03 04:40:19;;;;;;;27.20;14.30;;;;;;;;;;5093402;28;20043;-59
2023/12/03 04:42:45;;;;;;;31.05;14.75;;;;;;;;;;5075468;28;20024;-58
2023/12/03 04:45:11;;;;;;;29.85;11.43;;;;;;;;;;5076109;28;20036;-58
2023/12/03 04:47:37;;;;;;;8.85;4.93;;;;;;;;;;5075868;28;20027;-60
2023/12/03 04:50:03;;;;;;;19.70;11.68;;;;;;;;;;5094488;28;20024;-60
2023/12/03 04:52:29;;;;;;;12.23;6.68;;;;;;;;;;5094372;28;20028;-58
2023/12/03 04:54:55;;;;;;;8.55;5.18;;;;;;;;;;5093288;28;20389;-59
2023/12/03 04:57:21;;;;;;;15.95;7.90;;;;;;;;;;5094314;28;20028;-59
2023/12/03 04:59:47;;;;;;;8.90;5.97;;;;;;;;;;5094699;28;20496;-59
2023/12/03 05:02:13;;;;;;;25.77;13.02;;;;;;;;;;5094446;28;20113;-60
2023/12/03 05:04:39;;;;;;;9.55;6.00;;;;;;;;;;5095551;28;20039;-59
2023/12/03 05:07:05;;;;;;;12.07;7.22;;;;;;;;;;5098177;28;20040;-58
2023/12/03 05:09:31;;;;;;;13.40;10.63;;;;;;;;;;5097926;28;20028;-60
2023/12/03 05:11:57;;;;;;;13.57;10.63;;;;;;;;;;5097306;28;20028;-60
2023/12/03 05:14:23;;;;;;;10.55;6.63;;;;;;;;;;5098050;28;20051;-61
2023/12/03 05:16:49;;;;;;;19.92;10.00;;;;;;;;;;5098465;28;20027;-56
2023/12/03 05:19:16;;;;;;;9.35;5.75;;;;;;;;;;5082203;28;20032;-56
2023/12/03 05:21:41;;;;;;;21.27;10.80;;;;;;;;;;5100287;28;20024;-56
2023/12/03 05:24:07;;;;;;;14.35;10.15;;;;;;;;;;5097213;28;20099;-60
2023/12/03 05:26:33;;;;;;;15.07;10.10;;;;;;;;;;5079310;28;20145;-57
2023/12/03 05:28:59;;;;;;;11.02;6.75;;;;;;;;;;5097303;28;20509;-60
2023/12/03 05:31:25;;;;;;;22.08;6.95;;;;;;;;;;5097550;28;20025;-60
2023/12/03 05:33:51;;;;;;;16.15;8.60;;;;;;;;;;5097484;28;20077;-58
2023/12/03 05:36:24;;;;;;;17.85;10.95;;;;;;;;;;5097403;28;20016;-60
2023/12/03 05:38:53;;;;;;;32.33;15.27;;;;;;;;;;5078682;28;20056;-59
2023/12/03 05:41:19;;;;;;;12.77;7.78;;;;;;;;;;5096636;28;20104;-57
2023/12/03 05:43:45;;;;;;;8.35;4.95;;;;;;;;;;5097781;28;20056;-60
2023/12/03 05:46:11;;;;;;;32.83;14.05;;;;;;;;;;5097000;28;20071;-59
2023/12/03 05:48:37;;;;;;;10.55;6.78;;;;;;;;;;5096707;28;20026;-61
2023/12/03 05:51:08;;;;;;;13.88;8.13;;;;;;;;;;5096343;28;20028;-60
2023/12/03 05:53:34;;;;;;;10.13;6.05;;;;;;;;;;5097419;28;20020;-59
2023/12/03 05:56:00;;;;;;;44.38;14.80;;;;;;;;;;5096845;28;20558;-60
2023/12/03 05:58:26;;;;;;;12.77;7.72;;;;;;;;;;5096682;28;20028;-60
2023/12/03 06:00:52;;;;;;;9.57;5.85;;;;;;;;;;5096855;28;20512;-60
2023/12/03 06:03:18;;;;;;;11.15;8.00;;;;;;;;;;5095771;28;20024;-60
2023/12/03 06:05:44;;;;;;;10.60;6.75;;;;;;;;;;5097004;28;20486;-59
2023/12/03 06:08:10;;;;;;;13.45;8.65;;;;;;;;;;5096657;28;20024;-59
2023/12/03 06:10:36;;;;;;;30.33;10.18;;;;;;;;;;5096268;28;20176;-57
2023/12/03 06:13:02;;;;;;;10.00;6.45;;;;;;;;;;5096883;28;20378;-60
2023/12/03 06:15:28;;;;;;;15.18;13.13;;;;;;;;;;5095615;28;20099;-59
2023/12/03 06:17:53;;;;;;;16.70;9.18;;;;;;;;;;5096778;28;20068;-59
2023/12/03 06:20:19;;;;;;;31.17;14.55;;;;;;;;;;5096092;28;20398;-58
2023/12/03 06:22:45;;;;;;;15.25;9.90;;;;;;;;;;5095957;28;20054;-56
2023/12/03 06:25:11;;;;;;;26.55;15.10;;;;;;;;;;5095548;28;20018;-61
2023/12/03 06:27:37;;;;;;;13.73;10.95;;;;;;;;;;5095466;28;20016;-61
2023/12/03 06:30:04;;;;;;;21.38;13.35;;;;;;;;;;5095350;28;20028;-59
2023/12/03 06:32:30;;;;;;;10.45;7.47;;;;;;;;;;5095655;28;20521;-56
2023/12/03 06:34:55;;;;;;;8.05;4.95;;;;;;;;;;5095363;28;20031;-61
2023/12/03 06:37:21;;;;;;;7.60;4.50;;;;;;;;;;5095631;28;20352;-59
2023/12/03 06:39:47;;;;;;;11.93;6.55;;;;;;;;;;5095900;28;20024;-58
2023/12/03 06:42:13;;;;;;;8.20;4.90;;;;;;;;;;5094237;28;20043;-61
2023/12/03 06:44:39;;;;;;;10.25;6.35;;;;;;;;;;5093439;28;20040;-59
2023/12/03 06:47:06;;;;;;;13.55;8.32;;;;;;;;;;5093992;28;20401;-59
2023/12/03 06:49:32;;;;;;;13.35;7.35;;;;;;;;;;5077002;28;20024;-59
2023/12/03 06:51:58;;;;;;;12.70;7.70;;;;;;;;;;5096068;28;20019;-59
2023/12/03 06:54:24;;;;;;;27.02;9.90;;;;;;;;;;5094381;28;20020;-58
2023/12/03 06:56:50;;;;;;;15.57;8.90;;;;;;;;;;5092324;28;20020;-57
2023/12/03 06:59:16;;;;;;;8.68;5.13;;;;;;;;;;5095154;28;20030;-59
2023/12/03 07:01:42;;;;;;;12.98;8.57;;;;;;;;;;5076591;28;20095;-61
2023/12/03 07:04:08;;;;;;;16.00;10.77;;;;;;;;;;5077682;28;20458;-59
2023/12/03 07:06:34;;;;;;;12.73;7.35;;;;;;;;;;5077397;28;20039;-58
2023/12/03 07:09:00;;;;;;;11.73;6.75;;;;;;;;;;5095828;28;20028;-60
2023/12/03 07:11:29;;;;;;;19.23;9.50;;;;;;;;;;5077471;28;20098;-58
2023/12/03 07:13:55;;;;;;;11.80;6.85;;;;;;;;;;5095570;28;20015;-60
2023/12/03 07:16:22;;;;;;;15.73;8.48;;;;;;;;;;5095730;28;20431;-59
2023/12/03 07:18:48;;;;;;;11.70;7.30;;;;;;;;;;5077424;28;20381;-60
2023/12/03 07:21:14;;;;;;;11.70;5.82;;;;;;;;;;5095983;28;20486;-59
2023/12/03 07:23:40;;;;;;;10.63;6.72;;;;;;;;;;5095236;28;20043;-61
2023/12/03 07:26:09;;;;;;;17.30;8.95;;;;;;;;;;5095347;28;20032;-60
2023/12/03 07:28:36;;;;;;;14.15;6.85;;;;;;;;;;5096669;28;20058;-60
2023/12/03 07:31:03;;;;;;;18.27;9.13;;;;;;;;;;5100008;28;20085;-55
2023/12/03 07:33:29;;;;;;;10.30;6.80;;;;;;;;;;5078569;28;20036;-57
2023/12/03 07:35:55;;;;;;;10.05;6.28;;;;;;;;;;5077150;28;20032;-60
2023/12/03 07:38:21;;;;;;;15.73;8.55;;;;;;;;;;5096206;28;20024;-56
2023/12/03 07:40:47;;;;;;;11.93;7.28;;;;;;;;;;5077625;28;20053;-62
2023/12/03 07:43:13;;;;;;;15.07;9.57;;;;;;;;;;5095556;28;20070;-59
2023/12/03 07:45:39;;;;;;;8.70;5.15;;;;;;;;;;5095093;28;20024;-61
2023/12/03 07:48:05;;;;;;;10.13;6.20;;;;;;;;;;5095273;28;20109;-60
2023/12/03 07:50:31;;;;;;;19.92;8.70;;;;;;;;;;5078039;28;20035;-61
2023/12/03 07:52:59;;;;;;;10.90;5.95;;;;;;;;;;5095241;28;20042;-59
2023/12/03 07:55:25;;;;;;;8.93;5.30;;;;;;;;;;5095280;28;20262;-60
2023/12/03 07:57:51;;;;;;;9.68;5.95;;;;;;;;;;5067878;28;20044;-62
2023/12/03 08:00:17;;;;;;;15.80;10.73;;;;;;;;;;5075300;28;20514;-59
2023/12/03 08:02:43;;;;;;;11.55;7.35;;;;;;;;;;5074748;28;20032;-60
2023/12/03 08:05:09;;;;;;;9.82;5.97;;;;;;;;;;5056453;28;20555;-60
2023/12/03 08:07:35;;;;;;;9.32;5.63;;;;;;;;;;5057455;28;20029;-60
2023/12/03 08:10:01;;;;;;;13.90;9.52;;;;;;;;;;5074512;28;20032;-60
2023/12/03 08:12:28;;;;;;;10.07;5.82;;;;;;;;;;5074337;28;20190;-60
2023/12/03 08:14:54;;;;;;;12.57;7.53;;;;;;;;;;5074133;28;20012;-59
2023/12/03 08:17:20;;;;;;;10.00;6.50;;;;;;;;;;5075121;28;20033;-59
2023/12/03 08:19:46;;;;;;;20.35;10.48;;;;;;;;;;5075586;28;20031;-60
2023/12/03 08:22:12;;;;;;;15.43;8.02;;;;;;;;;;5057296;28;20025;-62
2023/12/03 08:24:38;;;;;;;14.27;10.40;;;;;;;;;;5074967;28;20036;-62
2023/12/03 08:27:04;;;;;;;21.90;14.50;;;;;;;;;;5056125;28;20374;-61
2023/12/03 08:29:31;;;;;;;14.38;8.98;;;;;;;;;;5075137;28;20028;-59
2023/12/03 08:31:57;;;;;;;15.65;9.68;;;;;;;;;;5074493;28;20017;-60
2023/12/03 08:34:23;;;;;;;22.20;12.57;;;;;;;;;;5074762;28;20070;-61
2023/12/03 08:36:50;;;;;;;12.95;7.55;;;;;;;;;;5074973;28;20024;-58
2023/12/03 08:39:16;;;;;;;10.20;6.05;;;;;;;;;;5059334;28;20025;-61
2023/12/03 08:41:42;;;;;;;12.90;8.00;;;;;;;;;;5060733;28;20037;-60
2023/12/03 08:44:08;;;;;;;16.27;10.52;;;;;;;;;;5079177;28;20029;-60
2023/12/03 08:46:34;;;;;;;21.45;9.48;;;;;;;;;;5044692;28;20218;-59
2023/12/03 08:49:00;;;;;;;14.25;9.05;;;;;;;;;;5078849;28;20035;-61
2023/12/03 08:51:26;;;;;;;12.48;6.60;;;;;;;;;;5078464;28;20106;-58
2023/12/03 08:53:52;;;;;;;11.98;7.68;;;;;;;;;;5061178;28;20037;-58
2023/12/03 08:56:17;;;;;;;15.45;9.20;;;;;;;;;;5078094;28;20020;-60
2023/12/03 08:58:43;;;;;;;11.88;7.65;;;;;;;;;;5093870;28;20020;-56
2023/12/03 09:01:10;;;;;;;15.60;7.18;;;;;;;;;;5098355;28;20030;-62
2023/12/03 09:03:39;;;;;;;12.48;8.38;;;;;;;;;;5079971;28;20042;-61
2023/12/03 09:06:06;;;;;;;11.80;7.45;;;;;;;;;;5098124;28;20431;-59
2023/12/03 09:08:32;;;;;;;11.20;7.70;;;;;;;;;;5079357;28;20020;-60
2023/12/03 09:10:58;;;;;;;10.38;6.13;;;;;;;;;;5079398;28;20024;-60
2023/12/03 09:13:24;;;;;;;11.10;6.45;;;;;;;;;;5097681;28;20084;-61
2023/12/03 09:15:51;;;;;;;11.27;8.07;;;;;;;;;;5097358;28;20048;-61
2023/12/03 09:18:17;;;;;;;14.13;9.60;;;;;;;;;;5097460;28;20027;-59
2023/12/03 09:20:43;;;;;;;11.93;7.82;;;;;;;;;;5097567;28;20092;-61
2023/12/03 09:23:09;;;;;;;13.55;7.82;;;;;;;;;;5095397;28;20055;-57
2023/12/03 09:25:35;;;;;;;11.38;6.45;;;;;;;;;;5092127;28;20028;-52
2023/12/03 09:28:01;;;;;;;11.20;6.72;;;;;;;;;;5092058;28;20032;-51
2023/12/03 09:30:27;;;;;;;11.60;6.80;;;;;;;;;;5073610;28;20111;-51
2023/12/03 09:32:53;;;;;;;15.00;9.20;;;;;;;;;;5092511;28;20478;-51
2023/12/03 09:35:20;;;;;;;10.40;6.13;;;;;;;;;;5091776;28;20026;-53
2023/12/03 09:37:46;;;;;;;11.48;7.65;;;;;;;;;;5091933;28;20017;-51
2023/12/03 09:40:13;;;;;;;13.32;7.68;;;;;;;;;;5073857;28;20036;-52
2023/12/03 09:42:40;;;;;;;10.20;6.00;;;;;;;;;;5092729;28;20031;-59
2023/12/03 09:45:09;;;;;;;10.70;6.30;;;;;;;;;;5091266;28;20028;-54
2023/12/03 09:47:35;;;;;;;11.88;6.90;;;;;;;;;;5073243;28;20031;-50
2023/12/03 09:50:02;;;;;;;10.30;6.05;;;;;;;;;;5090223;28;20020;-51
2023/12/03 09:52:30;;;;;;;12.25;6.75;;;;;;;;;;5073261;28;20027;-52
2023/12/03 09:55:00;;;;;;;14.30;8.45;;;;;;;;;;5090859;28;20027;-52
2023/12/03 09:57:27;;;;;;;15.40;8.45;;;;;;;;;;5091199;28;20028;-54
2023/12/03 09:59:57;;;;;;;13.73;7.33;;;;;;;;;;5091345;28;20056;-54
2023/12/03 10:02:26;;;;;;;9.80;5.80;;;;;;;;;;5073137;28;20024;-54
2023/12/03 10:04:52;;;;;;;9.93;5.82;;;;;;;;;;5091047;28;20028;-57
2023/12/03 10:07:20;;;;;;;10.90;7.07;;;;;;;;;;5091184;28;20477;-55
2023/12/03 10:09:48;;;;;;;12.23;7.57;;;;;;;;;;5090481;28;20024;-53
2023/12/03 10:12:14;;;;;;;12.30;7.40;;;;;;;;;;5090847;28;20337;-57
2023/12/03 10:14:41;;;;;;;13.15;8.45;;;;;;;;;;5090851;28;20032;-58
2023/12/03 10:17:08;;;;;;;18.65;10.32;;;;;;;;;;5090747;28;20028;-53
2023/12/03 10:19:34;;;;;;;12.85;8.45;;;;;;;;;;5091206;28;20102;-52
2023/12/03 10:22:00;;;;;;;11.43;6.68;;;;;;;;;;5072667;28;20055;-56
2023/12/03 10:24:26;;;;;;;12.70;7.88;;;;;;;;;;5090779;28;20081;-55
2023/12/03 10:26:53;;;;;;;12.45;7.93;;;;;;;;;;5091168;28;20024;-55
2023/12/03 10:29:19;;;;;;;16.02;8.55;;;;;;;;;;5072476;28;20031;-53
2023/12/03 10:31:47;;;;;;;17.38;9.88;;;;;;;;;;5090778;28;20497;-56
2023/12/03 10:34:13;;;;;;;14.38;8.15;;;;;;;;;;5091151;28;20020;-52
2023/12/03 10:36:42;;;;;;;12.23;7.28;;;;;;;;;;5091476;28;20039;-50
2023/12/03 10:39:08;;;;;;;12.82;8.00;;;;;;;;;;5091179;28;20111;-53
2023/12/03 10:41:34;;;;;;;18.25;10.38;;;;;;;;;;5091655;28;20072;-52
2023/12/03 10:44:00;;;;;;;14.02;8.57;;;;;;;;;;5091888;28;20020;-51
2023/12/03 10:46:26;;;;;;;10.48;6.07;;;;;;;;;;5091064;28;20092;-53
2023/12/03 10:48:53;;;;;;;15.90;9.60;;;;;;;;;;5091144;28;20020;-54
2023/12/03 10:51:19;;;;;;;16.50;10.15;;;;;;;;;;5091141;28;20013;-52
2023/12/03 10:53:45;;;;;;;14.65;9.02;;;;;;;;;;5090491;28;20279;-52
2023/12/03 10:56:11;;;;;;;13.25;7.63;;;;;;;;;;5072489;28;20024;-51
2023/12/03 10:58:37;;;;;;;11.85;6.90;;;;;;;;;;5090615;28;20105;-50
2023/12/03 11:01:20;;;;;;;18.02;9.93;;;;;;;;;;5090227;28;20050;-54
2023/12/03 11:04:03;;;;;;;12.77;7.95;;;;;;;;;;5090710;28;20141;-52
2023/12/03 11:06:32;;;;;;;14.90;8.73;;;;;;;;;;5090261;28;20047;-49
2023/12/03 11:08:58;;;;;;;16.60;10.25;;;;;;;;;;5072296;28;20020;-54
2023/12/03 11:11:25;;;;;;;15.77;7.53;;;;;;;;;;5090442;28;20439;-54
2023/12/03 11:13:56;;;;;;;12.43;7.22;;;;;;;;;;5090303;28;20520;-54
2023/12/03 11:16:23;;;;;;;16.13;8.32;;;;;;;;;;5090360;28;20069;-56
2023/12/03 11:19:00;;;;;;;19.27;10.27;;;;;;;;;;5090385;28;20024;-54
2023/12/03 11:21:27;;;;;;;17.83;8.95;;;;;;;;;;5071968;28;20118;-54
2023/12/03 11:24:10;;;;;;;14.32;8.90;;;;;;;;;;5089872;28;20141;-54
2023/12/03 11:26:36;;;;;;;13.55;7.97;;;;;;;;;;5090192;28;20446;-54
2023/12/03 11:29:02;;;;;;;13.90;8.65;;;;;;;;;;5090072;28;20020;-54
2023/12/03 11:31:28;;;;;;;16.92;10.73;;;;;;;;;;5089487;28;20031;-55
2023/12/03 11:33:59;;;;;;;14.13;8.55;;;;;;;;;;5090706;28;20021;-54
2023/12/03 11:36:47;;;;;;;14.68;9.02;;;;;;;;;;5090339;28;20034;-52
2023/12/03 11:39:13;;;;;;;14.55;8.88;;;;;;;;;;5071150;28;20032;-54
2023/12/03 11:41:39;;;;;;;13.43;8.00;;;;;;;;;;5089790;28;20256;-54
2023/12/03 11:44:18;;;;;;;13.95;8.70;;;;;;;;;;5089570;28;20028;-52
2023/12/03 11:46:48;;;;;;;13.43;7.97;;;;;;;;;;5089651;28;20032;-52
2023/12/03 11:49:14;;;;;;;21.17;9.30;;;;;;;;;;5089641;28;20058;-53
2023/12/03 11:51:40;;;;;;;13.70;8.88;;;;;;;;;;5089358;28;20074;-55
2023/12/03 11:54:07;;;;;;;15.15;9.93;;;;;;;;;;5089506;28;20490;-54
2023/12/03 11:56:35;;;;;;;15.75;10.32;;;;;;;;;;5089013;28;20050;-54
2023/12/03 11:59:01;;;;;;;13.38;8.02;;;;;;;;;;5086314;28;20515;-51
2023/12/03 12:01:27;;;;;;;13.52;8.20;;;;;;;;;;5089042;28;20024;-53
2023/12/03 12:03:53;;;;;;;14.45;8.95;;;;;;;;;;5089361;28;20097;-52
2023/12/03 12:06:26;;;;;;;13.13;7.78;;;;;;;;;;5071334;28;20024;-51
2023/12/03 12:08:52;;;;;;;18.65;10.30;;;;;;;;;;5089253;28;20024;-52
2023/12/03 12:11:19;;;;;;;17.02;9.27;;;;;;;;;;5089198;28;20566;-54
2023/12/03 12:13:45;;;;;;;13.70;8.00;;;;;;;;;;5088902;28;20028;-52
2023/12/03 12:16:12;;;;;;;13.57;8.75;;;;;;;;;;5089155;28;20043;-55
2023/12/03 12:18:38;;;;;;;15.48;10.45;;;;;;;;;;5089564;28;20055;-55
2023/12/03 12:21:08;;;;;;;14.75;8.80;;;;;;;;;;5089286;28;20081;-51
2023/12/03 12:23:34;;;;;;;13.80;8.55;;;;;;;;;;5089386;28;20020;-55
2023/12/03 12:26:01;;;;;;;14.10;8.82;;;;;;;;;;5070339;28;20499;-53
2023/12/03 12:28:26;;;;;;;14.13;9.57;;;;;;;;;;5088973;28;20031;-58
2023/12/03 12:30:55;;;;;;;13.57;8.45;;;;;;;;;;5088640;28;20029;-54
2023/12/03 12:33:21;;;;;;;13.25;7.90;;;;;;;;;;5089246;28;20027;-54
2023/12/03 12:35:51;;;;;;;13.90;8.73;;;;;;;;;;5089293;28;20025;-56
2023/12/03 12:38:17;;;;;;;13.27;7.90;;;;;;;;;;5071211;28;20032;-59
2023/12/03 12:40:55;;;;;;;16.38;8.90;;;;;;;;;;5070669;28;20115;-55
2023/12/03 12:43:21;;;;;;;14.00;9.00;;;;;;;;;;5089107;28;20021;-50
2023/12/03 12:45:48;;;;;;;16.02;10.32;;;;;;;;;;5099453;22;20071;-48
2023/12/03 12:48:24;;;;;;;13.63;8.80;;;;;;;;;;5069516;28;20024;-47
2023/12/03 12:50:50;;;;;;;14.07;9.32;;;;;;;;;;5067393;28;20065;-47
2023/12/03 12:53:16;;;;;;;13.57;8.77;;;;;;;;;;5069023;28;20025;-47
2023/12/03 12:55:42;;;;;;;13.68;8.88;;;;;;;;;;5067942;28;20025;-47
2023/12/03 12:58:10;;;;;;;13.65;8.77;;;;;;;;;;5068950;28;20027;-45
2023/12/03 13:00:36;;;;;;;13.73;9.30;;;;;;;;;;5069730;28;20544;-51
2023/12/03 13:03:02;;;;;;;14.10;9.57;;;;;;;;;;5069911;28;20029;-50
2023/12/03 13:05:29;;;;;;;16.00;9.15;;;;;;;;;;5069768;28;20024;-49
2023/12/03 13:07:55;;;;;;;13.57;8.65;;;;;;;;;;5069744;28;20041;-49
2023/12/03 13:10:22;;;;;;;14.48;9.73;;;;;;;;;;5069574;28;20020;-49
2023/12/03 13:12:48;;;;;;;14.20;8.93;;;;;;;;;;5069491;28;20479;-52
2023/12/03 13:15:14;;;;;;;14.07;8.95;;;;;;;;;;5069145;28;20504;-51
2023/12/03 13:17:46;;;;;;;16.17;9.73;;;;;;;;;;5051658;28;20122;-51
2023/12/03 13:20:12;;;;;;;14.93;11.00;;;;;;;;;;5069422;28;20524;-48
2023/12/03 13:22:38;;;;;;;13.48;8.38;;;;;;;;;;5070170;28;20020;-50
2023/12/03 13:25:05;;;;;;;14.00;9.00;;;;;;;;;;5070459;28;20040;-51
2023/12/03 13:27:31;;;;;;;13.90;9.57;;;;;;;;;;5073805;28;20033;-50
2023/12/03 13:29:57;;;;;;;13.90;8.45;;;;;;;;;;5073454;28;20502;-49
2023/12/03 13:32:23;;;;;;;13.65;8.70;;;;;;;;;;5073175;28;20024;-50
2023/12/03 13:34:49;;;;;;;15.65;9.38;;;;;;;;;;5073012;28;20032;-51
2023/12/03 13:37:15;;;;;;;13.30;8.20;;;;;;;;;;5054916;28;20028;-46
2023/12/03 13:39:41;;;;;;;13.70;8.70;;;;;;;;;;5073026;28;20063;-49
2023/12/03 13:42:07;;;;;;;16.20;8.95;;;;;;;;;;5072847;28;20032;-50
2023/12/03 13:44:33;;;;;;;13.80;8.90;;;;;;;;;;5072884;28;20432;-48
2023/12/03 13:46:59;;;;;;;13.57;8.60;;;;;;;;;;5072665;28;20090;-51
2023/12/03 13:49:25;;;;;;;13.45;8.45;;;;;;;;;;5054724;28;20455;-45
2023/12/03 13:51:51;;;;;;;13.65;8.85;;;;;;;;;;5072555;28;20066;-48
2023/12/03 13:54:17;;;;;;;13.25;8.15;;;;;;;;;;5054814;28;20028;-51
2023/12/03 13:56:43;;;;;;;13.48;8.30;;;;;;;;;;5072627;28;20033;-48
2023/12/03 13:59:10;;;;;;;15.05;9.52;;;;;;;;;;5054372;28;20029;-52
2023/12/03 14:01:36;;;;;;;13.35;8.18;;;;;;;;;;5072400;28;20017;-47
2023/12/03 14:04:02;;;;;;;13.20;7.70;;;;;;;;;;5072210;28;20474;-46
2023/12/03 14:06:29;;;;;;;13.32;7.88;;;;;;;;;;5072176;28;20065;-47
2023/12/03 14:08:55;;;;;;;13.38;8.00;;;;;;;;;;5072294;28;20025;-52
2023/12/03 14:11:21;;;;;;;13.77;8.75;;;;;;;;;;5054087;28;20021;-48
2023/12/03 14:13:47;;;;;;;13.05;7.75;;;;;;;;;;5054215;28;20060;-52
2023/12/03 14:16:16;;;;;;;13.48;8.10;;;;;;;;;;5071204;28;20025;-54
2023/12/03 14:18:42;;;;;;;13.35;8.02;;;;;;;;;;5071377;28;20394;-48
2023/12/03 14:21:09;;;;;;;13.43;8.15;;;;;;;;;;5071669;28;20499;-49
2023/12/03 14:23:35;;;;;;;13.30;7.90;;;;;;;;;;5054260;28;20057;-49